Time,TemperatureF,DewpointF,PressureIn,WindDirection,WindDirectionDegrees,WindSpeedMPH,WindSpeedGustMPH,Humidity,HourlyPrecipIn,Conditions,Clouds,dailyrainin,SoftwareType,DateUTC
2013-07-20 00:02:00,66.0,64.0,30.03,North,0,0.0,-999.0,93,-99.99,,,-99.99,,2013-07-20 05:02:00,
2013-07-20 00:11:00,66.0,63.0,30.03,North,0,0.0,-999.0,88,-99.99,,,-99.99,,2013-07-20 05:11:00,
2013-07-20 00:22:00,66.0,64.0,30.02,North,0,0.0,-999.0,93,-99.99,,,-99.99,,2013-07-20 05:22:00,
2013-07-20 00:32:00,66.0,64.0,30.02,North,0,0.0,-999.0,93,-99.99,,,-99.99,,2013-07-20 05:32:00,
2013-07-20 00:52:00,64.0,63.0,30.03,North,0,0.0,-999.0,93,-99.99,,,-99.99,,2013-07-20 05:52:00,
2013-07-20 01:01:00,64.0,63.0,30.03,North,0,0.0,-999.0,93,-99.99,,,-99.99,,2013-07-20 06:01:00,
2013-07-20 01:11:00,64.0,63.0,30.03,North,0,0.0,-999.0,93,-99.99,,,-99.99,,2013-07-20 06:11:00,
2013-07-20 01:21:00,64.0,63.0,30.03,North,0,0.0,-999.0,93,-99.99,,,-99.99,,2013-07-20 06:21:00,
2013-07-20 01:32:00,64.0,63.0,30.03,North,0,0.0,-999.0,93,-99.99,,,-99.99,,2013-07-20 06:32:00,
2013-07-20 01:43:00,64.0,63.0,30.03,North,0,0.0,-999.0,93,-99.99,,,-99.99,,2013-07-20 06:43:00,
2013-07-20 01:52:00,63.0,63.0,30.02,North,0,0.0,-999.0,100,-99.99,,,-99.99,,2013-07-20 06:52:00,
2013-07-20 02:01:00,63.0,63.0,30.02,North,0,0.0,-999.0,100,-99.99,,,-99.99,,2013-07-20 07:01:00,
2013-07-20 02:12:00,63.0,63.0,30.02,North,0,0.0,-999.0,100,-99.99,,,-99.99,,2013-07-20 07:12:00,
2013-07-20 02:22:00,63.0,63.0,30.02,North,0,0.0,-999.0,100,-99.99,,,-99.99,,2013-07-20 07:22:00,
2013-07-20 02:33:00,63.0,63.0,30.02,North,0,0.0,-999.0,100,-99.99,,,-99.99,,2013-07-20 07:33:00,
2013-07-20 02:44:00,63.0,63.0,30.02,North,0,0.0,-999.0,100,-99.99,,,-99.99,,2013-07-20 07:44:00,
2013-07-20 02:53:00,64.0,63.0,30.00,North,0,0.0,-999.0,93,-99.99,,,-99.99,,2013-07-20 07:53:00,
2013-07-20 03:01:00,63.0,63.0,30.00,North,0,0.0,-999.0,100,-99.99,,,-99.99,,2013-07-20 08:01:00,
2013-07-20 03:11:00,63.0,63.0,30.01,North,0,0.0,-999.0,100,-99.99,,,-99.99,,2013-07-20 08:11:00,
2013-07-20 03:22:00,63.0,63.0,30.00,North,0,0.0,-999.0,100,-99.99,,,-99.99,,2013-07-20 08:22:00,
2013-07-20 03:32:00,63.0,63.0,30.01,North,0,0.0,-999.0,100,-99.99,,,-99.99,,2013-07-20 08:32:00,
2013-07-20 03:44:00,63.0,63.0,30.01,North,0,0.0,-999.0,100,-99.99,,,-99.99,,2013-07-20 08:44:00,
2013-07-20 03:52:00,61.0,61.0,30.01,North,0,0.0,-999.0,100,-99.99,,,-99.99,,2013-07-20 08:52:00,
2013-07-20 04:02:00,61.0,61.0,30.01,North,0,0.0,-999.0,100,-99.99,,,-99.99,,2013-07-20 09:02:00,
2013-07-20 04:11:00,61.0,61.0,30.00,North,0,0.0,-999.0,100,-99.99,,,-99.99,,2013-07-20 09:11:00,
2013-07-20 04:22:00,61.0,59.0,30.00,North,0,0.0,-999.0,93,-99.99,,,-99.99,,2013-07-20 09:22:00,
2013-07-20 04:33:00,61.0,61.0,29.99,North,0,0.0,-999.0,100,-99.99,,,-99.99,,2013-07-20 09:33:00,
2013-07-20 04:43:00,61.0,61.0,29.99,North,0,0.0,-999.0,100,-99.99,,,-99.99,,2013-07-20 09:43:00,
2013-07-20 04:53:00,61.0,61.0,29.99,North,0,0.0,-999.0,100,-99.99,,,-99.99,,2013-07-20 09:53:00,
2013-07-20 05:01:00,61.0,61.0,30.00,North,0,0.0,-999.0,100,-99.99,,,-99.99,,2013-07-20 10:01:00,
2013-07-20 05:11:00,61.0,61.0,30.00,North,0,0.0,-999.0,100,-99.99,,,-99.99,,2013-07-20 10:11:00,
2013-07-20 05:21:00,61.0,61.0,30.00,North,0,0.0,-999.0,100,-99.99,,,-99.99,,2013-07-20 10:21:00,
2013-07-20 05:32:00,61.0,61.0,30.00,North,0,0.0,-999.0,100,-99.99,,,-99.99,,2013-07-20 10:32:00,
2013-07-20 05:42:00,61.0,61.0,30.01,North,0,0.0,-999.0,100,-99.99,,,-99.99,,2013-07-20 10:42:00,
2013-07-20 05:52:00,61.0,61.0,30.00,North,0,0.0,-999.0,100,-99.99,,,-99.99,,2013-07-20 10:52:00,
2013-07-20 06:01:00,61.0,61.0,30.01,North,0,0.0,-999.0,100,-99.99,,,-99.99,,2013-07-20 11:01:00,
2013-07-20 06:11:00,61.0,61.0,30.02,North,0,0.0,-999.0,100,-99.99,,,-99.99,,2013-07-20 11:11:00,
2013-07-20 06:22:00,61.0,61.0,30.05,West,269,3.0,-999.0,100,-99.99,,,-99.99,,2013-07-20 11:22:00,
2013-07-20 06:32:00,63.0,63.0,30.06,West,269,5.0,-999.0,100,-99.99,,,-99.99,,2013-07-20 11:32:00,
2013-07-20 06:43:00,63.0,63.0,30.06,SSW,205,3.0,-999.0,100,-99.99,,,-99.99,,2013-07-20 11:43:00,
2013-07-20 06:52:00,64.0,63.0,30.06,WSW,249,5.0,-999.0,93,-99.99,,,-99.99,,2013-07-20 11:52:00,
2013-07-20 07:01:00,64.0,63.0,30.05,North,0,3.0,-999.0,93,-99.99,,,-99.99,,2013-07-20 12:01:00,
2013-07-20 07:11:00,64.0,63.0,30.05,North,0,5.0,-999.0,93,-99.99,,,-99.99,,2013-07-20 12:11:00,
2013-07-20 07:32:00,63.0,63.0,30.06,WSW,250,7.0,-999.0,100,-99.99,,,-99.99,,2013-07-20 12:32:00,
2013-07-20 07:52:00,63.0,63.0,30.06,NNW,334,3.0,-999.0,100,-99.99,,,-99.99,,2013-07-20 12:52:00,
2013-07-20 08:01:00,63.0,63.0,30.05,West,269,8.0,-999.0,100,-99.99,,,-99.99,,2013-07-20 13:01:00,
2013-07-20 08:11:00,63.0,63.0,30.05,WSW,249,5.0,-999.0,100,-99.99,,,-99.99,,2013-07-20 13:11:00,
2013-07-20 08:22:00,63.0,63.0,30.03,WSW,250,6.0,-999.0,100,-99.99,,,-99.99,,2013-07-20 13:22:00,
2013-07-20 08:32:00,63.0,63.0,30.00,North,0,0.0,-999.0,100,-99.99,,,-99.99,,2013-07-20 13:32:00,
2013-07-20 08:43:00,64.0,63.0,30.02,North,0,0.0,-999.0,93,-99.99,,,-99.99,,2013-07-20 13:43:00,
2013-07-20 08:53:00,64.0,63.0,30.02,North,0,0.0,-999.0,93,-99.99,,,-99.99,,2013-07-20 13:53:00,
2013-07-20 09:02:00,64.0,63.0,30.00,North,0,0.0,-999.0,93,-99.99,,,-99.99,,2013-07-20 14:02:00,
2013-07-20 09:11:00,64.0,64.0,30.02,NNW,334,3.0,-999.0,100,-99.99,,,-99.99,,2013-07-20 14:11:00,
2013-07-20 09:22:00,64.0,64.0,30.01,North,0,0.0,-999.0,100,-99.99,,,-99.99,,2013-07-20 14:22:00,
2013-07-20 09:32:00,64.0,64.0,29.99,ESE,115,3.0,-999.0,100,-99.99,,,-99.99,,2013-07-20 14:32:00,
2013-07-20 09:43:00,66.0,64.0,29.99,North,0,0.0,-999.0,93,-99.99,,,-99.99,,2013-07-20 14:43:00,
2013-07-20 09:53:00,66.0,66.0,29.99,North,0,0.0,-999.0,100,-99.99,,,-99.99,,2013-07-20 14:53:00,
2013-07-20 10:01:00,66.0,66.0,30.01,North,0,0.0,-999.0,100,-99.99,,,-99.99,,2013-07-20 15:01:00,
2013-07-20 10:11:00,66.0,66.0,30.01,North,0,0.0,-999.0,100,-99.99,,,-99.99,,2013-07-20 15:11:00,
2013-07-20 10:22:00,66.0,66.0,30.01,North,0,0.0,-999.0,100,-99.99,,,-99.99,,2013-07-20 15:22:00,
2013-07-20 10:33:00,66.0,66.0,30.01,North,0,0.0,-999.0,100,-99.99,,,-99.99,,2013-07-20 15:33:00,
2013-07-20 10:44:00,68.0,66.0,30.01,North,0,0.0,-999.0,93,-99.99,,,-99.99,,2013-07-20 15:44:00,
2013-07-20 10:52:00,70.0,68.0,30.01,North,0,0.0,-999.0,94,-99.99,,,-99.99,,2013-07-20 15:52:00,
2013-07-20 11:01:00,70.0,66.0,30.02,North,0,0.0,-999.0,88,-99.99,,,-99.99,,2013-07-20 16:01:00,
2013-07-20 11:11:00,70.0,66.0,30.02,North,0,0.0,-999.0,88,-99.99,,,-99.99,,2013-07-20 16:11:00,
2013-07-20 11:22:00,70.0,66.0,30.03,North,0,0.0,-999.0,88,-99.99,,,-99.99,,2013-07-20 16:22:00,
2013-07-20 11:32:00,70.0,66.0,30.03,North,0,5.0,-999.0,88,-99.99,,,-99.99,,2013-07-20 16:32:00,
2013-07-20 11:43:00,72.0,68.0,30.03,NNW,335,6.0,-999.0,88,-99.99,,,-99.99,,2013-07-20 16:43:00,
2013-07-20 11:52:00,73.0,70.0,30.03,NNE,24,5.0,-999.0,88,-99.99,,,-99.99,,2013-07-20 16:52:00,
2013-07-20 12:02:00,73.0,70.0,30.03,SSE,154,3.0,-999.0,88,-99.99,,,-99.99,,2013-07-20 17:02:00,
2013-07-20 12:11:00,75.0,70.0,30.03,East,90,3.0,-999.0,83,-99.99,,,-99.99,,2013-07-20 17:11:00,
2013-07-20 12:22:00,75.0,70.0,30.03,NNE,25,3.0,-999.0,83,-99.99,,,-99.99,,2013-07-20 17:22:00,
2013-07-20 12:32:00,75.0,70.0,30.03,North,0,0.0,-999.0,83,-99.99,,,-99.99,,2013-07-20 17:32:00,
2013-07-20 12:43:00,75.0,70.0,30.02,North,0,0.0,-999.0,83,-99.99,,,-99.99,,2013-07-20 17:43:00,
2013-07-20 12:53:00,75.0,70.0,30.02,North,0,0.0,-999.0,83,-99.99,,,-99.99,,2013-07-20 17:53:00,
2013-07-20 13:01:00,75.0,68.0,30.02,North,0,0.0,-999.0,78,-99.99,,,-99.99,,2013-07-20 18:01:00,
2013-07-20 13:11:00,77.0,68.0,30.01,ENE,69,10.0,-999.0,73,-99.99,,,-99.99,,2013-07-20 18:11:00,
2013-07-20 13:23:00,79.0,70.0,30.01,ESE,115,3.0,-999.0,73,-99.99,,,-99.99,,2013-07-20 18:23:00,
2013-07-20 16:44:00,79.0,70.0,30.00,SE,135,3.0,-999.0,73,-99.99,,,-99.99,,2013-07-20 21:44:00,
2013-07-20 16:54:00,79.0,68.0,30.00,East,90,7.0,-999.0,69,-99.99,,,-99.99,,2013-07-20 21:54:00,
2013-07-20 17:05:00,79.0,68.0,29.99,North,0,5.0,-999.0,69,-99.99,,,-99.99,,2013-07-20 22:05:00,
2013-07-20 17:24:00,79.0,68.0,30.01,North,0,0.0,-999.0,69,-99.99,,,-99.99,,2013-07-20 22:24:00,
2013-07-20 17:53:00,77.0,70.0,29.98,SSE,155,5.0,-999.0,78,-99.99,,,-99.99,,2013-07-20 22:53:00,
2013-07-20 18:03:00,77.0,70.0,29.98,North,0,0.0,-999.0,78,-99.99,,,-99.99,,2013-07-20 23:03:00,
2013-07-20 18:25:00,79.0,70.0,29.97,North,0,0.0,-999.0,73,-99.99,,,-99.99,,2013-07-20 23:25:00,
2013-07-20 18:36:00,79.0,68.0,29.97,North,0,0.0,-999.0,69,-99.99,,,-99.99,,2013-07-20 23:36:00,
2013-07-20 18:54:00,79.0,70.0,29.98,North,0,0.0,-999.0,73,-99.99,,,-99.99,,2013-07-20 23:54:00,
2013-07-20 19:05:00,77.0,70.0,29.97,North,0,0.0,-999.0,78,-99.99,,,-99.99,,2013-07-21 00:05:00,
2013-07-20 19:14:00,77.0,70.0,29.96,North,0,0.0,-999.0,78,-99.99,,,-99.99,,2013-07-21 00:14:00,
2013-07-20 19:22:00,75.0,68.0,29.96,North,0,0.0,-999.0,78,-99.99,,,-99.99,,2013-07-21 00:22:00,
2013-07-20 19:43:00,77.0,70.0,29.97,North,0,0.0,-999.0,78,-99.99,,,-99.99,,2013-07-21 00:43:00,
2013-07-20 19:55:00,77.0,70.0,29.97,WSW,250,6.0,-999.0,78,-99.99,,,-99.99,,2013-07-21 00:55:00,
2013-07-20 20:05:00,75.0,70.0,29.97,WSW,249,3.0,-999.0,83,-99.99,,,-99.99,,2013-07-21 01:05:00,
2013-07-20 20:11:00,75.0,70.0,29.97,North,0,0.0,-999.0,83,-99.99,,,-99.99,,2013-07-21 01:11:00,
2013-07-20 20:35:00,75.0,70.0,29.97,North,0,0.0,-999.0,83,-99.99,,,-99.99,,2013-07-21 01:35:00,
2013-07-20 20:44:00,-999.0,-99.9,29.96,North,0,0.0,-999.0,-999,-99.99,,,-99.99,,2013-07-21 01:44:00,
2013-07-20 20:54:00,75.0,70.0,29.96,North,0,0.0,-999.0,83,-99.99,,,-99.99,,2013-07-21 01:54:00,
2013-07-20 21:03:00,75.0,70.0,29.96,North,0,0.0,-999.0,83,-99.99,,,-99.99,,2013-07-21 02:03:00,
2013-07-20 21:14:00,75.0,70.0,29.97,North,0,0.0,-999.0,83,-99.99,,,-99.99,,2013-07-21 02:14:00,
2013-07-20 21:24:00,73.0,70.0,29.98,North,0,0.0,-999.0,88,-99.99,,,-99.99,,2013-07-21 02:24:00,
2013-07-20 21:35:00,73.0,70.0,29.98,North,0,0.0,-999.0,88,-99.99,,,-99.99,,2013-07-21 02:35:00,
2013-07-20 21:43:00,73.0,70.0,29.98,North,0,0.0,-999.0,88,-99.99,,,-99.99,,2013-07-21 02:43:00,
2013-07-20 21:54:00,72.0,70.0,29.98,North,0,0.0,-999.0,94,-99.99,,,-99.99,,2013-07-21 02:54:00,
2013-07-20 22:14:00,72.0,70.0,29.99,North,0,0.0,-999.0,94,-99.99,,,-99.99,,2013-07-21 03:14:00,
2013-07-20 22:24:00,72.0,70.0,30.00,North,0,0.0,-999.0,94,-99.99,,,-99.99,,2013-07-21 03:24:00,
2013-07-20 22:33:00,72.0,70.0,29.99,North,0,0.0,-999.0,94,-99.99,,,-99.99,,2013-07-21 03:33:00,
2013-07-20 22:44:00,70.0,68.0,29.99,North,0,0.0,-999.0,94,-99.99,,,-99.99,,2013-07-21 03:44:00,
2013-07-20 22:54:00,70.0,68.0,29.98,North,0,0.0,-999.0,94,-99.99,,,-99.99,,2013-07-21 03:54:00,
2013-07-20 23:01:00,70.0,68.0,29.98,North,0,0.0,-999.0,94,-99.99,,,-99.99,,2013-07-21 04:01:00,
2013-07-20 23:11:00,70.0,68.0,29.98,North,0,0.0,-999.0,94,-99.99,,,-99.99,,2013-07-21 04:11:00,
2013-07-20 23:22:00,70.0,68.0,29.99,ENE,69,5.0,-999.0,94,-99.99,,,-99.99,,2013-07-21 04:22:00,
2013-07-20 23:32:00,70.0,68.0,29.99,North,0,0.0,-999.0,94,-99.99,,,-99.99,,2013-07-21 04:32:00,
2013-07-20 23:43:00,70.0,68.0,29.99,North,0,0.0,-999.0,94,-99.99,,,-99.99,,2013-07-21 04:43:00,
2013-07-20 23:53:00,70.0,68.0,30.00,North,0,0.0,-999.0,94,-99.99,,,-99.99,,2013-07-21 04:53:00,